sensor_id;sensor_type;location;lat;lon;timestamp;pressure;altitude;pressure_sealevel;temperature;humidity
6506;BME280;3286;49.858;8.768;2024-02-14T00:00:10;99520.75;;;8.89;47.16
6506;BME280;3286;49.858;8.768;2024-02-14T00:02:39;99500.31;;;9.02;46.24
6506;BME280;3286;49.858;8.768;2024-02-14T00:05:06;99511.53;;;8.73;47.34
6506;BME280;3286;49.858;8.768;2024-02-14T00:07:33;99500.16;;;8.73;47.29
6506;BME280;3286;49.858;8.768;2024-02-14T00:09:59;99509.34;;;8.78;47.64
6506;BME280;3286;49.858;8.768;2024-02-14T00:12:26;99506.13;;;8.75;47.67
6506;BME280;3286;49.858;8.768;2024-02-14T00:14:53;99512.19;;;8.65;48.00
6506;BME280;3286;49.858;8.768;2024-02-14T00:17:21;99513.13;;;8.86;46.80
6506;BME280;3286;49.858;8.768;2024-02-14T00:19:48;99507.09;;;9.46;46.07
6506;BME280;3286;49.858;8.768;2024-02-14T00:22:15;99499.13;;;9.26;46.09
6506;BME280;3286;49.858;8.768;2024-02-14T00:24:41;99507.41;;;9.11;46.64
6506;BME280;3286;49.858;8.768;2024-02-14T00:27:08;99503.84;;;8.91;47.36
6506;BME280;3286;49.858;8.768;2024-02-14T00:29:35;99509.72;;;9.05;48.13
6506;BME280;3286;49.858;8.768;2024-02-14T00:32:02;99496.31;;;9.18;47.65
6506;BME280;3286;49.858;8.768;2024-02-14T00:34:29;99491.38;;;9.34;46.83
6506;BME280;3286;49.858;8.768;2024-02-14T00:36:56;99499.84;;;9.38;47.14
6506;BME280;3286;49.858;8.768;2024-02-14T00:39:22;99504.31;;;9.47;47.43
6506;BME280;3286;49.858;8.768;2024-02-14T00:41:49;99500.03;;;9.15;47.83
6506;BME280;3286;49.858;8.768;2024-02-14T00:44:17;99492.91;;;9.37;47.76
6506;BME280;3286;49.858;8.768;2024-02-14T00:46:44;99500.94;;;9.35;47.55
6506;BME280;3286;49.858;8.768;2024-02-14T00:49:11;99493.09;;;9.55;47.29
6506;BME280;3286;49.858;8.768;2024-02-14T00:51:40;99484.78;;;9.60;47.77
6506;BME280;3286;49.858;8.768;2024-02-14T00:54:06;99478.66;;;9.59;47.69
6506;BME280;3286;49.858;8.768;2024-02-14T00:56:33;99491.03;;;9.78;47.43
6506;BME280;3286;49.858;8.768;2024-02-14T00:59:00;99488.69;;;9.85;46.98
6506;BME280;3286;49.858;8.768;2024-02-14T01:01:27;99486.00;;;9.46;47.71
6506;BME280;3286;49.858;8.768;2024-02-14T01:03:53;99486.91;;;9.25;47.84
6506;BME280;3286;49.858;8.768;2024-02-14T01:06:20;99472.81;;;9.46;47.74
6506;BME280;3286;49.858;8.768;2024-02-14T01:08:48;99469.22;;;10.06;46.50
6506;BME280;3286;49.858;8.768;2024-02-14T01:11:15;99471.69;;;9.78;47.07
6506;BME280;3286;49.858;8.768;2024-02-14T01:13:43;99474.19;;;9.40;47.60
6506;BME280;3286;49.858;8.768;2024-02-14T01:16:09;99469.78;;;8.99;48.31
6506;BME280;3286;49.858;8.768;2024-02-14T01:18:36;99463.09;;;9.46;47.69
6506;BME280;3286;49.858;8.768;2024-02-14T01:21:03;99468.50;;;9.64;47.51
6506;BME280;3286;49.858;8.768;2024-02-14T01:23:30;99462.81;;;9.98;47.51
6506;BME280;3286;49.858;8.768;2024-02-14T01:26:00;99453.47;;;10.43;46.70
6506;BME280;3286;49.858;8.768;2024-02-14T01:28:27;99453.75;;;10.31;47.40
6506;BME280;3286;49.858;8.768;2024-02-14T01:30:54;99450.88;;;9.84;48.23
6506;BME280;3286;49.858;8.768;2024-02-14T01:33:22;99454.34;;;9.65;49.45
6506;BME280;3286;49.858;8.768;2024-02-14T01:35:48;99446.69;;;10.11;47.99
6506;BME280;3286;49.858;8.768;2024-02-14T01:38:15;99452.22;;;10.18;47.82
6506;BME280;3286;49.858;8.768;2024-02-14T01:40:42;99451.97;;;10.11;48.13
6506;BME280;3286;49.858;8.768;2024-02-14T01:43:19;99443.88;;;10.33;47.54
6506;BME280;3286;49.858;8.768;2024-02-14T01:45:46;99439.50;;;10.71;46.47
6506;BME280;3286;49.858;8.768;2024-02-14T01:48:13;99430.63;;;10.52;46.48
6506;BME280;3286;49.858;8.768;2024-02-14T01:50:44;99437.91;;;10.31;46.75
6506;BME280;3286;49.858;8.768;2024-02-14T01:53:11;99443.78;;;10.14;47.58
6506;BME280;3286;49.858;8.768;2024-02-14T01:55:38;99430.06;;;10.01;47.92
6506;BME280;3286;49.858;8.768;2024-02-14T01:58:05;99422.19;;;10.29;47.79
6506;BME280;3286;49.858;8.768;2024-02-14T02:00:33;99420.50;;;10.38;47.52
6506;BME280;3286;49.858;8.768;2024-02-14T02:03:04;99425.34;;;10.52;46.61
6506;BME280;3286;49.858;8.768;2024-02-14T02:05:33;99417.59;;;10.51;46.86
6506;BME280;3286;49.858;8.768;2024-02-14T02:08:01;99411.75;;;10.47;47.12
6506;BME280;3286;49.858;8.768;2024-02-14T02:10:47;99409.72;;;10.21;47.83
6506;BME280;3286;49.858;8.768;2024-02-14T02:13:15;99412.19;;;10.33;47.27
6506;BME280;3286;49.858;8.768;2024-02-14T02:15:43;99418.44;;;10.32;47.70
6506;BME280;3286;49.858;8.768;2024-02-14T02:18:10;99409.16;;;10.27;47.64
6506;BME280;3286;49.858;8.768;2024-02-14T02:20:38;99410.81;;;10.28;47.73
6506;BME280;3286;49.858;8.768;2024-02-14T02:23:09;99408.09;;;10.00;48.44
6506;BME280;3286;49.858;8.768;2024-02-14T02:25:40;99406.75;;;10.34;47.96
6506;BME280;3286;49.858;8.768;2024-02-14T02:28:07;99406.34;;;10.49;47.00
6506;BME280;3286;49.858;8.768;2024-02-14T02:30:34;99408.09;;;10.10;48.01
6506;BME280;3286;49.858;8.768;2024-02-14T02:33:02;99411.81;;;10.18;47.98
6506;BME280;3286;49.858;8.768;2024-02-14T02:35:29;99402.53;;;10.13;47.72
6506;BME280;3286;49.858;8.768;2024-02-14T02:37:55;99391.28;;;10.02;47.26
6506;BME280;3286;49.858;8.768;2024-02-14T02:40:24;99408.81;;;9.63;47.98
6506;BME280;3286;49.858;8.768;2024-02-14T02:42:51;99401.56;;;9.26;49.71
6506;BME280;3286;49.858;8.768;2024-02-14T02:45:17;99401.72;;;9.24;49.61
6506;BME280;3286;49.858;8.768;2024-02-14T02:47:44;99398.41;;;9.22;48.99
6506;BME280;3286;49.858;8.768;2024-02-14T02:50:11;99412.53;;;9.31;49.36
6506;BME280;3286;49.858;8.768;2024-02-14T02:52:38;99411.28;;;9.16;49.67
6506;BME280;3286;49.858;8.768;2024-02-14T02:55:07;99407.84;;;9.54;49.11
6506;BME280;3286;49.858;8.768;2024-02-14T02:57:35;99414.50;;;9.88;48.23
6506;BME280;3286;49.858;8.768;2024-02-14T03:00:07;99427.81;;;10.06;48.00
6506;BME280;3286;49.858;8.768;2024-02-14T03:02:35;99420.19;;;9.44;49.11
6506;BME280;3286;49.858;8.768;2024-02-14T03:05:04;99421.03;;;9.74;48.59
6506;BME280;3286;49.858;8.768;2024-02-14T03:07:31;99425.47;;;9.83;48.71
6506;BME280;3286;49.858;8.768;2024-02-14T03:09:58;99427.81;;;10.06;48.02
6506;BME280;3286;49.858;8.768;2024-02-14T03:12:25;99428.19;;;10.41;47.17
6506;BME280;3286;49.858;8.768;2024-02-14T03:14:55;99420.88;;;10.05;48.60
6506;BME280;3286;49.858;8.768;2024-02-14T03:17:22;99427.38;;;10.21;47.88
6506;BME280;3286;49.858;8.768;2024-02-14T03:19:49;99428.88;;;10.43;46.99
6506;BME280;3286;49.858;8.768;2024-02-14T03:22:17;99425.19;;;9.86;48.69
6506;BME280;3286;49.858;8.768;2024-02-14T03:24:44;99428.00;;;10.52;47.24
6506;BME280;3286;49.858;8.768;2024-02-14T03:27:12;99429.16;;;10.40;47.27
6506;BME280;3286;49.858;8.768;2024-02-14T03:29:39;99428.22;;;10.69;46.66
6506;BME280;3286;49.858;8.768;2024-02-14T03:32:07;99425.19;;;10.64;46.96
6506;BME280;3286;49.858;8.768;2024-02-14T03:34:34;99422.03;;;10.88;46.13
6506;BME280;3286;49.858;8.768;2024-02-14T03:37:01;99426.69;;;10.19;47.56
6506;BME280;3286;49.858;8.768;2024-02-14T03:39:28;99433.06;;;10.16;48.12
6506;BME280;3286;49.858;8.768;2024-02-14T03:41:56;99430.41;;;10.46;47.86
6506;BME280;3286;49.858;8.768;2024-02-14T03:44:22;99432.22;;;10.25;48.12
6506;BME280;3286;49.858;8.768;2024-02-14T03:46:49;99426.00;;;10.17;47.93
6506;BME280;3286;49.858;8.768;2024-02-14T03:49:17;99423.56;;;10.33;48.06
6506;BME280;3286;49.858;8.768;2024-02-14T03:51:46;99429.63;;;9.56;49.99
6506;BME280;3286;49.858;8.768;2024-02-14T03:54:14;99426.72;;;9.79;48.94
6506;BME280;3286;49.858;8.768;2024-02-14T03:56:41;99429.09;;;9.53;49.45
6506;BME280;3286;49.858;8.768;2024-02-14T03:59:07;99425.78;;;9.61;50.18
6506;BME280;3286;49.858;8.768;2024-02-14T04:01:34;99427.84;;;9.67;49.28
6506;BME280;3286;49.858;8.768;2024-02-14T04:04:01;99435.03;;;9.45;49.70
6506;BME280;3286;49.858;8.768;2024-02-14T04:06:29;99428.53;;;9.89;49.23
6506;BME280;3286;49.858;8.768;2024-02-14T04:08:57;99435.47;;;9.70;49.29
6506;BME280;3286;49.858;8.768;2024-02-14T04:11:24;99430.75;;;9.74;49.07
6506;BME280;3286;49.858;8.768;2024-02-14T04:13:51;99426.59;;;9.61;49.96
6506;BME280;3286;49.858;8.768;2024-02-14T04:16:19;99437.97;;;9.42;49.96
6506;BME280;3286;49.858;8.768;2024-02-14T04:18:46;99435.91;;;9.85;49.38
6506;BME280;3286;49.858;8.768;2024-02-14T04:21:13;99434.09;;;9.56;50.01
6506;BME280;3286;49.858;8.768;2024-02-14T04:23:42;99433.25;;;9.65;50.01
6506;BME280;3286;49.858;8.768;2024-02-14T04:26:08;99426.31;;;9.54;49.75
6506;BME280;3286;49.858;8.768;2024-02-14T04:28:35;99433.94;;;9.48;50.33
6506;BME280;3286;49.858;8.768;2024-02-14T04:31:02;99451.25;;;9.21;51.70
6506;BME280;3286;49.858;8.768;2024-02-14T04:33:27;99447.22;;;9.17;51.39
6506;BME280;3286;49.858;8.768;2024-02-14T04:35:55;99448.34;;;9.34;51.38
6506;BME280;3286;49.858;8.768;2024-02-14T04:38:21;99441.31;;;9.93;50.57
6506;BME280;3286;49.858;8.768;2024-02-14T04:40:49;99448.25;;;9.55;50.95
6506;BME280;3286;49.858;8.768;2024-02-14T04:43:17;99448.22;;;9.25;51.22
6506;BME280;3286;49.858;8.768;2024-02-14T04:45:44;99455.88;;;9.48;51.35
6506;BME280;3286;49.858;8.768;2024-02-14T04:48:12;99458.25;;;10.00;50.28
6506;BME280;3286;49.858;8.768;2024-02-14T04:50:38;99451.44;;;9.68;50.02
6506;BME280;3286;49.858;8.768;2024-02-14T04:53:05;99461.56;;;9.93;50.58
6506;BME280;3286;49.858;8.768;2024-02-14T04:55:32;99462.13;;;9.77;50.53
6506;BME280;3286;49.858;8.768;2024-02-14T04:58:00;99457.38;;;9.41;51.58
6506;BME280;3286;49.858;8.768;2024-02-14T05:00:27;99456.69;;;9.98;50.71
6506;BME280;3286;49.858;8.768;2024-02-14T05:02:54;99461.84;;;9.50;51.83
6506;BME280;3286;49.858;8.768;2024-02-14T05:05:20;99452.28;;;9.69;51.98
6506;BME280;3286;49.858;8.768;2024-02-14T05:07:47;99456.44;;;10.01;50.83
6506;BME280;3286;49.858;8.768;2024-02-14T05:10:13;99468.34;;;10.15;50.75
6506;BME280;3286;49.858;8.768;2024-02-14T05:12:43;99458.50;;;9.78;51.53
6506;BME280;3286;49.858;8.768;2024-02-14T05:15:12;99467.41;;;9.96;51.16
6506;BME280;3286;49.858;8.768;2024-02-14T05:17:42;99466.28;;;9.50;52.24
6506;BME280;3286;49.858;8.768;2024-02-14T05:20:09;99470.28;;;9.34;52.09
6506;BME280;3286;49.858;8.768;2024-02-14T05:22:36;99466.91;;;9.12;53.29
6506;BME280;3286;49.858;8.768;2024-02-14T05:25:04;99457.84;;;9.66;51.74
6506;BME280;3286;49.858;8.768;2024-02-14T05:27:33;99450.59;;;9.58;52.54
6506;BME280;3286;49.858;8.768;2024-02-14T05:29:59;99454.19;;;9.37;52.46
6506;BME280;3286;49.858;8.768;2024-02-14T05:32:27;99449.56;;;9.20;53.25
6506;BME280;3286;49.858;8.768;2024-02-14T05:34:54;99445.06;;;9.41;52.96
6506;BME280;3286;49.858;8.768;2024-02-14T05:37:21;99440.75;;;9.70;52.37
6506;BME280;3286;49.858;8.768;2024-02-14T05:39:47;99448.13;;;9.76;52.58
6506;BME280;3286;49.858;8.768;2024-02-14T05:42:14;99448.53;;;9.71;52.15
6506;BME280;3286;49.858;8.768;2024-02-14T05:44:41;99451.56;;;8.87;55.78
6506;BME280;3286;49.858;8.768;2024-02-14T05:47:08;99458.56;;;9.07;55.20
6506;BME280;3286;49.858;8.768;2024-02-14T05:49:38;99456.22;;;9.14;55.49
6506;BME280;3286;49.858;8.768;2024-02-14T05:52:05;99447.41;;;8.94;54.76
6506;BME280;3286;49.858;8.768;2024-02-14T05:54:32;99441.88;;;9.48;53.94
6506;BME280;3286;49.858;8.768;2024-02-14T05:56:58;99453.66;;;9.63;53.68
6506;BME280;3286;49.858;8.768;2024-02-14T05:59:25;99447.94;;;9.48;53.45
6506;BME280;3286;49.858;8.768;2024-02-14T06:01:51;99450.56;;;9.28;53.79
6506;BME280;3286;49.858;8.768;2024-02-14T06:04:18;99452.50;;;9.36;54.11
6506;BME280;3286;49.858;8.768;2024-02-14T06:06:46;99454.63;;;10.02;53.14
6506;BME280;3286;49.858;8.768;2024-02-14T06:09:13;99459.06;;;9.52;53.69
6506;BME280;3286;49.858;8.768;2024-02-14T06:11:39;99459.88;;;9.33;53.34
6506;BME280;3286;49.858;8.768;2024-02-14T06:14:06;99452.94;;;9.51;53.20
6506;BME280;3286;49.858;8.768;2024-02-14T06:16:33;99474.38;;;9.07;54.81
6506;BME280;3286;49.858;8.768;2024-02-14T06:19:00;99465.28;;;9.41;53.75
6506;BME280;3286;49.858;8.768;2024-02-14T06:21:29;99464.28;;;9.12;53.96
6506;BME280;3286;49.858;8.768;2024-02-14T06:23:59;99459.56;;;9.26;54.62
6506;BME280;3286;49.858;8.768;2024-02-14T06:26:25;99475.19;;;9.08;55.32
6506;BME280;3286;49.858;8.768;2024-02-14T06:28:52;99485.78;;;9.18;56.84
6506;BME280;3286;49.858;8.768;2024-02-14T06:31:19;99494.50;;;8.77;58.80
6506;BME280;3286;49.858;8.768;2024-02-14T06:33:47;99509.28;;;8.47;60.45
6506;BME280;3286;49.858;8.768;2024-02-14T06:36:13;99507.72;;;8.87;60.45
6506;BME280;3286;49.858;8.768;2024-02-14T06:38:40;99498.38;;;9.14;59.95
6506;BME280;3286;49.858;8.768;2024-02-14T06:41:08;99494.41;;;9.30;60.35
6506;BME280;3286;49.858;8.768;2024-02-14T06:43:35;99502.41;;;8.77;61.44
6506;BME280;3286;49.858;8.768;2024-02-14T06:46:04;99508.50;;;8.35;63.46
6506;BME280;3286;49.858;8.768;2024-02-14T06:48:31;99515.91;;;8.84;62.81
6506;BME280;3286;49.858;8.768;2024-02-14T06:50:58;99507.28;;;8.82;63.22
6506;BME280;3286;49.858;8.768;2024-02-14T06:53:24;99504.66;;;9.23;60.88
6506;BME280;3286;49.858;8.768;2024-02-14T06:55:51;99512.56;;;9.23;61.24
6506;BME280;3286;49.858;8.768;2024-02-14T06:58:19;99508.97;;;8.93;61.62
6506;BME280;3286;49.858;8.768;2024-02-14T07:00:45;99505.56;;;9.02;60.07
6506;BME280;3286;49.858;8.768;2024-02-14T07:03:12;99521.59;;;8.89;61.20
6506;BME280;3286;49.858;8.768;2024-02-14T07:05:39;99523.16;;;9.33;59.19
6506;BME280;3286;49.858;8.768;2024-02-14T07:08:06;99527.44;;;8.93;60.35
6506;BME280;3286;49.858;8.768;2024-02-14T07:10:32;99525.44;;;9.57;58.15
6506;BME280;3286;49.858;8.768;2024-02-14T07:12:59;99529.28;;;9.43;57.82
6506;BME280;3286;49.858;8.768;2024-02-14T07:15:27;99529.13;;;9.35;57.97
6506;BME280;3286;49.858;8.768;2024-02-14T07:17:54;99530.56;;;9.49;57.68
6506;BME280;3286;49.858;8.768;2024-02-14T07:20:23;99535.31;;;9.84;56.55
6506;BME280;3286;49.858;8.768;2024-02-14T07:22:51;99540.28;;;9.58;56.00
6506;BME280;3286;49.858;8.768;2024-02-14T07:25:18;99538.03;;;9.53;56.22
6506;BME280;3286;49.858;8.768;2024-02-14T07:27:45;99546.19;;;9.31;57.45
6506;BME280;3286;49.858;8.768;2024-02-14T07:30:15;99537.50;;;8.78;59.04
6506;BME280;3286;49.858;8.768;2024-02-14T07:32:43;99533.31;;;9.47;57.44
6506;BME280;3286;49.858;8.768;2024-02-14T07:35:09;99530.66;;;9.47;57.60
6506;BME280;3286;49.858;8.768;2024-02-14T07:37:36;99533.91;;;9.70;57.60
6506;BME280;3286;49.858;8.768;2024-02-14T07:40:04;99532.19;;;9.40;58.09
6506;BME280;3286;49.858;8.768;2024-02-14T07:42:31;99530.97;;;9.54;57.99
6506;BME280;3286;49.858;8.768;2024-02-14T07:44:57;99516.84;;;10.24;55.82
6506;BME280;3286;49.858;8.768;2024-02-14T07:47:24;99516.88;;;9.94;56.67
6506;BME280;3286;49.858;8.768;2024-02-14T07:49:52;99514.22;;;9.65;57.08
6506;BME280;3286;49.858;8.768;2024-02-14T07:52:19;99523.78;;;9.66;57.31
6506;BME280;3286;49.858;8.768;2024-02-14T07:54:46;99519.06;;;9.69;56.66
6506;BME280;3286;49.858;8.768;2024-02-14T07:57:13;99528.53;;;9.31;57.90
6506;BME280;3286;49.858;8.768;2024-02-14T07:59:39;99527.00;;;10.28;56.04
6506;BME280;3286;49.858;8.768;2024-02-14T08:02:06;99524.88;;;9.63;57.36
6506;BME280;3286;49.858;8.768;2024-02-14T08:04:32;99517.81;;;10.23;55.80
6506;BME280;3286;49.858;8.768;2024-02-14T08:07:00;99524.22;;;10.10;55.63
6506;BME280;3286;49.858;8.768;2024-02-14T08:09:29;99536.56;;;9.20;58.42
6506;BME280;3286;49.858;8.768;2024-02-14T08:11:56;99526.84;;;9.71;56.91
6506;BME280;3286;49.858;8.768;2024-02-14T08:14:23;99529.91;;;10.06;56.50
6506;BME280;3286;49.858;8.768;2024-02-14T08:16:49;99528.59;;;9.41;57.99
6506;BME280;3286;49.858;8.768;2024-02-14T08:19:17;99526.94;;;9.50;58.36
6506;BME280;3286;49.858;8.768;2024-02-14T08:21:43;99527.97;;;9.88;57.92
6506;BME280;3286;49.858;8.768;2024-02-14T08:24:11;99527.94;;;9.68;58.67
6506;BME280;3286;49.858;8.768;2024-02-14T08:26:38;99534.19;;;10.36;57.04
6506;BME280;3286;49.858;8.768;2024-02-14T08:29:05;99534.03;;;10.67;56.15
6506;BME280;3286;49.858;8.768;2024-02-14T08:31:32;99543.75;;;11.24;54.78
6506;BME280;3286;49.858;8.768;2024-02-14T08:33:58;99539.34;;;10.57;56.30
6506;BME280;3286;49.858;8.768;2024-02-14T08:36:25;99551.56;;;10.68;56.39
6506;BME280;3286;49.858;8.768;2024-02-14T08:38:52;99550.75;;;10.38;57.16
6506;BME280;3286;49.858;8.768;2024-02-14T08:41:20;99556.31;;;10.35;57.87
6506;BME280;3286;49.858;8.768;2024-02-14T08:43:48;99549.06;;;11.14;55.78
6506;BME280;3286;49.858;8.768;2024-02-14T08:46:17;99550.63;;;11.63;54.73
6506;BME280;3286;49.858;8.768;2024-02-14T08:48:43;99548.88;;;11.26;55.31
6506;BME280;3286;49.858;8.768;2024-02-14T08:51:12;99549.38;;;11.11;55.31
6506;BME280;3286;49.858;8.768;2024-02-14T08:53:38;99547.34;;;10.95;56.09
6506;BME280;3286;49.858;8.768;2024-02-14T08:56:06;99551.00;;;11.22;55.19
6506;BME280;3286;49.858;8.768;2024-02-14T08:58:34;99543.56;;;10.98;55.26
6506;BME280;3286;49.858;8.768;2024-02-14T09:01:01;99552.03;;;10.54;56.06
6506;BME280;3286;49.858;8.768;2024-02-14T09:03:28;99544.22;;;11.00;55.75
6506;BME280;3286;49.858;8.768;2024-02-14T09:05:56;99538.63;;;10.75;56.23
6506;BME280;3286;49.858;8.768;2024-02-14T09:08:23;99543.75;;;11.24;55.11
6506;BME280;3286;49.858;8.768;2024-02-14T09:10:49;99542.56;;;10.99;56.06
6506;BME280;3286;49.858;8.768;2024-02-14T09:13:16;99544.78;;;10.26;58.17
6506;BME280;3286;49.858;8.768;2024-02-14T09:15:45;99550.56;;;10.79;56.97
6506;BME280;3286;49.858;8.768;2024-02-14T09:18:11;99553.13;;;10.22;58.37
6506;BME280;3286;49.858;8.768;2024-02-14T09:20:38;99563.13;;;11.15;56.01
6506;BME280;3286;49.858;8.768;2024-02-14T09:23:04;99567.13;;;11.19;56.28
6506;BME280;3286;49.858;8.768;2024-02-14T09:25:31;99564.19;;;11.78;54.43
6506;BME280;3286;49.858;8.768;2024-02-14T09:27:58;99564.47;;;10.91;57.58
6506;BME280;3286;49.858;8.768;2024-02-14T09:30:24;99556.63;;;11.37;56.18
6506;BME280;3286;49.858;8.768;2024-02-14T09:32:52;99546.72;;;11.85;54.82
6506;BME280;3286;49.858;8.768;2024-02-14T09:35:19;99557.69;;;11.72;55.00
6506;BME280;3286;49.858;8.768;2024-02-14T09:37:45;99551.94;;;11.21;56.91
6506;BME280;3286;49.858;8.768;2024-02-14T09:40:12;99559.84;;;11.31;56.52
6506;BME280;3286;49.858;8.768;2024-02-14T09:42:43;99576.38;;;11.43;56.17
6506;BME280;3286;49.858;8.768;2024-02-14T09:45:11;99567.22;;;11.83;55.27
6506;BME280;3286;49.858;8.768;2024-02-14T09:47:38;99570.41;;;11.03;57.43
6506;BME280;3286;49.858;8.768;2024-02-14T09:50:08;99572.91;;;11.88;54.71
6506;BME280;3286;49.858;8.768;2024-02-14T09:52:36;99572.28;;;11.77;55.38
6506;BME280;3286;49.858;8.768;2024-02-14T09:55:05;99567.56;;;12.35;54.01
6506;BME280;3286;49.858;8.768;2024-02-14T09:57:32;99571.41;;;12.22;54.36
6506;BME280;3286;49.858;8.768;2024-02-14T10:00:00;99579.00;;;12.17;54.32
6506;BME280;3286;49.858;8.768;2024-02-14T10:02:28;99577.44;;;11.22;57.39
6506;BME280;3286;49.858;8.768;2024-02-14T10:04:56;99571.75;;;11.45;56.59
6506;BME280;3286;49.858;8.768;2024-02-14T10:07:24;99589.84;;;11.50;56.99
6506;BME280;3286;49.858;8.768;2024-02-14T10:09:50;99592.28;;;10.95;58.26
6506;BME280;3286;49.858;8.768;2024-02-14T10:12:17;99585.03;;;11.91;56.08
6506;BME280;3286;49.858;8.768;2024-02-14T10:14:44;99585.81;;;11.73;56.08
6506;BME280;3286;49.858;8.768;2024-02-14T10:17:17;99585.59;;;11.67;56.54
6506;BME280;3286;49.858;8.768;2024-02-14T10:19:54;99585.22;;;11.98;55.78
6506;BME280;3286;49.858;8.768;2024-02-14T10:22:21;99582.19;;;12.02;55.94
6506;BME280;3286;49.858;8.768;2024-02-14T10:24:49;99589.03;;;11.01;58.13
6506;BME280;3286;49.858;8.768;2024-02-14T10:27:16;99586.56;;;12.12;55.91
6506;BME280;3286;49.858;8.768;2024-02-14T10:29:43;99588.66;;;11.90;56.35
6506;BME280;3286;49.858;8.768;2024-02-14T10:32:10;99596.09;;;12.23;55.65
6506;BME280;3286;49.858;8.768;2024-02-14T10:34:37;99587.69;;;11.63;57.14
6506;BME280;3286;49.858;8.768;2024-02-14T10:37:05;99597.53;;;11.71;56.57
6506;BME280;3286;49.858;8.768;2024-02-14T10:39:35;99601.50;;;11.57;57.24
6506;BME280;3286;49.858;8.768;2024-02-14T10:42:04;99603.88;;;12.42;55.31
6506;BME280;3286;49.858;8.768;2024-02-14T10:44:31;99609.50;;;12.21;55.62
6506;BME280;3286;49.858;8.768;2024-02-14T10:47:00;99616.16;;;12.07;55.45
6506;BME280;3286;49.858;8.768;2024-02-14T10:49:29;99613.66;;;12.06;55.75
6506;BME280;3286;49.858;8.768;2024-02-14T10:51:57;99626.44;;;12.10;55.47
6506;BME280;3286;49.858;8.768;2024-02-14T10:54:28;99623.00;;;11.44;57.68
6506;BME280;3286;49.858;8.768;2024-02-14T10:56:58;99627.25;;;11.83;56.53
6506;BME280;3286;49.858;8.768;2024-02-14T10:59:30;99624.31;;;11.68;56.79
6506;BME280;3286;49.858;8.768;2024-02-14T11:01:57;99606.16;;;12.19;55.50
6506;BME280;3286;49.858;8.768;2024-02-14T11:04:24;99611.38;;;12.65;54.10
6506;BME280;3286;49.858;8.768;2024-02-14T11:06:52;99601.72;;;12.82;53.78
6506;BME280;3286;49.858;8.768;2024-02-14T11:09:20;99610.78;;;12.17;55.40
6506;BME280;3286;49.858;8.768;2024-02-14T11:11:46;99614.81;;;12.84;54.21
6506;BME280;3286;49.858;8.768;2024-02-14T11:14:15;99623.16;;;12.89;53.82
6506;BME280;3286;49.858;8.768;2024-02-14T11:16:45;99616.91;;;12.17;55.58
6506;BME280;3286;49.858;8.768;2024-02-14T11:19:13;99616.94;;;12.36;55.16
6506;BME280;3286;49.858;8.768;2024-02-14T11:21:42;99608.94;;;12.72;53.78
6506;BME280;3286;49.858;8.768;2024-02-14T11:24:10;99611.06;;;12.50;54.61
6506;BME280;3286;49.858;8.768;2024-02-14T11:26:46;99616.59;;;12.57;54.80
6506;BME280;3286;49.858;8.768;2024-02-14T11:29:14;99615.81;;;11.64;57.30
6506;BME280;3286;49.858;8.768;2024-02-14T11:31:44;99610.56;;;11.82;56.93
6506;BME280;3286;49.858;8.768;2024-02-14T11:34:11;99614.19;;;11.15;58.98
6506;BME280;3286;49.858;8.768;2024-02-14T11:36:39;99599.50;;;12.15;56.18
6506;BME280;3286;49.858;8.768;2024-02-14T11:39:07;99602.50;;;12.56;55.17
6506;BME280;3286;49.858;8.768;2024-02-14T11:41:34;99602.00;;;12.53;55.14
6506;BME280;3286;49.858;8.768;2024-02-14T11:44:02;99597.22;;;12.02;56.11
6506;BME280;3286;49.858;8.768;2024-02-14T11:46:30;99601.47;;;12.94;54.36
6506;BME280;3286;49.858;8.768;2024-02-14T11:49:00;99599.44;;;12.43;55.18
6506;BME280;3286;49.858;8.768;2024-02-14T11:51:28;99589.00;;;12.86;54.44
6506;BME280;3286;49.858;8.768;2024-02-14T11:53:55;99601.69;;;13.00;54.11
6506;BME280;3286;49.858;8.768;2024-02-14T11:56:22;99596.47;;;12.90;54.32
6506;BME280;3286;49.858;8.768;2024-02-14T11:58:51;99598.56;;;12.60;55.15
6506;BME280;3286;49.858;8.768;2024-02-14T12:01:18;99602.75;;;13.16;53.95
6506;BME280;3286;49.858;8.768;2024-02-14T12:03:45;99592.97;;;13.94;52.23
6506;BME280;3286;49.858;8.768;2024-02-14T12:06:13;99595.63;;;13.16;53.89
6506;BME280;3286;49.858;8.768;2024-02-14T12:08:43;99593.81;;;12.90;54.92
6506;BME280;3286;49.858;8.768;2024-02-14T12:11:10;99583.09;;;13.27;53.54
6506;BME280;3286;49.858;8.768;2024-02-14T12:13:37;99589.72;;;13.31;53.65
6506;BME280;3286;49.858;8.768;2024-02-14T12:16:08;99598.19;;;13.00;54.58
6506;BME280;3286;49.858;8.768;2024-02-14T12:18:36;99603.16;;;12.77;55.37
6506;BME280;3286;49.858;8.768;2024-02-14T12:21:05;99609.38;;;13.12;54.15
6506;BME280;3286;49.858;8.768;2024-02-14T12:23:35;99602.13;;;13.22;53.46
6506;BME280;3286;49.858;8.768;2024-02-14T12:26:03;99603.63;;;13.25;53.37
6506;BME280;3286;49.858;8.768;2024-02-14T12:28:31;99595.09;;;12.60;55.36
6506;BME280;3286;49.858;8.768;2024-02-14T12:30:58;99603.16;;;12.77;54.78
6506;BME280;3286;49.858;8.768;2024-02-14T12:33:26;99588.41;;;12.74;54.91
6506;BME280;3286;49.858;8.768;2024-02-14T12:35:54;99591.66;;;12.05;57.31
6506;BME280;3286;49.858;8.768;2024-02-14T12:38:22;99588.78;;;12.35;56.75
6506;BME280;3286;49.858;8.768;2024-02-14T12:40:50;99589.00;;;12.86;55.24
6506;BME280;3286;49.858;8.768;2024-02-14T12:43:19;99581.88;;;12.42;56.25
6506;BME280;3286;49.858;8.768;2024-02-14T12:45:46;99579.94;;;12.70;55.99
6506;BME280;3286;49.858;8.768;2024-02-14T12:48:13;99575.47;;;12.71;55.62
6506;BME280;3286;49.858;8.768;2024-02-14T12:50:40;99579.13;;;12.52;56.76
6506;BME280;3286;49.858;8.768;2024-02-14T12:53:13;99583.53;;;11.79;58.41
6506;BME280;3286;49.858;8.768;2024-02-14T12:55:39;99583.84;;;12.84;55.69
6506;BME280;3286;49.858;8.768;2024-02-14T12:58:07;99597.50;;;12.71;55.34
6506;BME280;3286;49.858;8.768;2024-02-14T13:00:35;99584.91;;;11.83;57.78
6506;BME280;3286;49.858;8.768;2024-02-14T13:03:01;99587.66;;;12.64;56.75
6506;BME280;3286;49.858;8.768;2024-02-14T13:05:28;99588.09;;;12.32;57.41
6506;BME280;3286;49.858;8.768;2024-02-14T13:07:55;99587.25;;;12.32;57.29
6506;BME280;3286;49.858;8.768;2024-02-14T13:10:22;99592.41;;;12.78;56.43
6506;BME280;3286;49.858;8.768;2024-02-14T13:12:48;99592.16;;;12.89;56.29
6506;BME280;3286;49.858;8.768;2024-02-14T13:15:17;99591.09;;;12.38;57.23
6506;BME280;3286;49.858;8.768;2024-02-14T13:17:44;99578.28;;;12.51;56.99
6506;BME280;3286;49.858;8.768;2024-02-14T13:20:11;99583.06;;;13.53;54.42
6506;BME280;3286;49.858;8.768;2024-02-14T13:22:40;99578.44;;;12.68;56.32
6506;BME280;3286;49.858;8.768;2024-02-14T13:25:07;99575.06;;;12.21;57.46
6506;BME280;3286;49.858;8.768;2024-02-14T13:27:34;99585.34;;;12.42;57.54